createdAt,value
2018-05-21T00:03:04.795Z,6.13
2018-05-21T00:08:59.805Z,5.84
2018-05-21T00:14:54.797Z,5.51
2018-05-21T00:20:49.847Z,5.4
2018-05-21T00:26:44.794Z,5.42
2018-05-21T00:32:39.786Z,5.28
2018-05-21T00:38:34.823Z,5.14
2018-05-21T00:44:29.846Z,4.74
2018-05-21T00:50:24.812Z,5.79
2018-05-21T00:56:19.856Z,5.23
2018-05-21T01:02:14.832Z,5.37
2018-05-21T01:08:09.900Z,5.22
2018-05-21T01:14:04.876Z,5.44
2018-05-21T01:19:59.873Z,5.4
2018-05-21T01:25:54.854Z,5.67
2018-05-21T01:31:49.836Z,4.95
2018-05-21T01:37:44.918Z,5.22
2018-05-21T01:43:39.890Z,5.48
2018-05-21T01:49:34.857Z,5.3
2018-05-21T01:55:29.881Z,5.89
2018-05-21T02:01:24.845Z,5.97
2018-05-21T02:07:19.860Z,5.6
2018-05-21T02:13:14.971Z,5.26
2018-05-21T02:19:09.867Z,5.06
2018-05-21T02:25:04.953Z,5.4
2018-05-21T02:30:59.935Z,6.17
2018-05-21T02:36:54.914Z,5.61
2018-05-21T02:42:49.918Z,5.32
2018-05-21T02:48:44.953Z,5.74
2018-05-21T02:54:39.964Z,5.95
2018-05-21T03:00:34.877Z,5.62
2018-05-21T03:06:29.911Z,5.63
2018-05-21T03:12:24.919Z,5.41
2018-05-21T03:18:19.929Z,6.38
2018-05-21T03:24:14.932Z,5.39
2018-05-21T03:30:09.938Z,6.18
2018-05-21T03:36:04.906Z,6.34
2018-05-21T03:41:59.930Z,6.43
2018-05-21T03:47:54.940Z,5.19
2018-05-21T03:53:49.979Z,6.2
2018-05-21T03:59:44.996Z,6.44
2018-05-21T04:05:39.916Z,6.45
2018-05-21T04:11:34.971Z,6
2018-05-21T04:17:29.921Z,6.48
2018-05-21T04:23:25.028Z,6.89
2018-05-21T04:29:19.992Z,6.98
2018-05-21T04:35:14.970Z,6.41
2018-05-21T04:41:10.242Z,6.09
2018-05-21T04:47:04.957Z,6.8
2018-05-21T04:53:00.041Z,6.9
2018-05-21T04:58:54.946Z,6.33
2018-05-21T05:04:49.990Z,7.08
2018-05-21T05:10:45.040Z,6.81
2018-05-21T05:16:40.017Z,6.81
2018-05-21T05:22:35.008Z,6.59
2018-05-21T05:28:30.037Z,7.37
2018-05-21T05:34:25.025Z,6.57
2018-05-21T05:40:20.011Z,6.85
2018-05-21T05:46:15.056Z,7.16
2018-05-21T05:52:10.056Z,6.69
2018-05-21T05:58:05.061Z,7.36
2018-05-21T06:04:00.030Z,7.37
2018-05-21T06:09:55.076Z,6.88
2018-05-21T06:15:50.025Z,6.81
2018-05-21T06:21:45.290Z,6.92
2018-05-21T06:27:40.103Z,7.35
2018-05-21T06:33:35.053Z,6.75
2018-05-21T06:39:30.097Z,6.65
2018-05-21T06:45:25.091Z,7.43
2018-05-21T06:51:20.072Z,7.84
2018-05-21T06:57:15.043Z,7.66
2018-05-21T07:03:10.065Z,6.98
2018-05-21T07:09:05.086Z,7.22
2018-05-21T07:15:00.088Z,6.82
2018-05-21T07:20:55.069Z,7.04
2018-05-21T07:26:50.101Z,7.12
2018-05-21T07:32:45.104Z,38.71
2018-05-21T07:38:40.194Z,22.12
2018-05-21T07:44:35.102Z,16.15
2018-05-21T07:50:30.094Z,29.67
2018-05-21T07:56:25.077Z,22.72
2018-05-21T08:02:20.155Z,12.45
2018-05-21T08:08:15.110Z,17.15
2018-05-21T08:14:10.102Z,15.96
2018-05-21T08:20:05.115Z,8.59
2018-05-21T08:26:00.275Z,7.63
2018-05-21T08:31:55.112Z,6.63
2018-05-21T08:37:50.128Z,5.3
2018-05-21T08:43:45.135Z,5.06
2018-05-21T08:49:40.142Z,5.37
2018-05-21T08:55:35.164Z,5.64
2018-05-21T09:01:30.152Z,5.19
2018-05-21T09:07:25.169Z,5.67
2018-05-21T09:13:20.132Z,5.15
2018-05-21T09:19:15.264Z,5.41
2018-05-21T09:25:10.198Z,5.09
2018-05-21T09:31:05.233Z,5.2
2018-05-21T09:37:00.161Z,4.9
2018-05-21T09:42:55.181Z,4.96
2018-05-21T09:48:50.197Z,5.26
2018-05-21T09:54:45.191Z,6.31
2018-05-21T10:00:40.243Z,5.12
2018-05-21T10:06:35.258Z,4.88
2018-05-21T10:12:30.214Z,5.07
2018-05-21T10:18:25.233Z,4.99
2018-05-21T10:24:20.223Z,5.28
2018-05-21T10:30:15.233Z,5.24
2018-05-21T10:36:10.224Z,5.13
2018-05-21T10:42:05.251Z,4.94
2018-05-21T10:48:00.241Z,4.84
2018-05-21T10:53:55.251Z,4.9
2018-05-21T10:59:50.251Z,5.66
2018-05-21T11:05:45.260Z,4.83
2018-05-21T11:11:40.280Z,5.68
2018-05-21T11:17:35.249Z,5.65
2018-05-21T11:23:30.295Z,5.41
2018-05-21T11:29:25.267Z,4.9
2018-05-21T11:35:20.335Z,4.97
2018-05-21T11:41:15.309Z,4.71
2018-05-21T11:47:10.279Z,5.19
2018-05-21T11:53:05.378Z,5.34
2018-05-21T11:59:00.300Z,5.14
2018-05-21T12:04:55.282Z,5.67
2018-05-21T12:10:50.278Z,5.62
2018-05-21T12:16:45.325Z,5.68
2018-05-21T12:22:40.308Z,5.89
2018-05-21T12:28:35.288Z,5.47
2018-05-21T12:34:30.341Z,5.12
2018-05-21T12:40:25.375Z,3.84
2018-05-21T12:46:20.352Z,4.69
2018-05-21T12:52:15.367Z,5.02
2018-05-21T12:58:10.339Z,4.51
2018-05-21T13:04:05.372Z,5.23
2018-05-21T13:10:00.358Z,4.96
2018-05-21T13:15:55.420Z,5.13
2018-05-21T13:21:50.398Z,6.23
2018-05-21T13:27:45.408Z,5.72
2018-05-21T13:33:40.362Z,5.05
2018-05-21T14:03:15.396Z,4.83
2018-05-21T14:03:15.416Z,5.36
2018-05-21T14:03:15.435Z,5.36
2018-05-21T14:03:15.471Z,5.36
2018-05-21T14:03:15.490Z,5.36
2018-05-21T14:09:10.424Z,6.78
2018-05-21T14:15:05.396Z,6.68
2018-05-21T14:21:00.379Z,7.26
2018-05-21T14:26:55.397Z,8.4
2018-05-21T14:32:50.398Z,7.73
2018-05-21T14:38:45.370Z,7.62
2018-05-21T14:44:40.424Z,7.45
2018-05-21T14:50:35.418Z,7.85
2018-05-21T14:56:30.407Z,7.45
2018-05-21T15:02:25.379Z,7.59
2018-05-21T15:08:20.446Z,7.65
2018-05-21T15:14:15.420Z,7.91
2018-05-21T15:20:10.468Z,8.17
2018-05-21T15:26:05.424Z,8.38
2018-05-21T15:32:00.471Z,9.08
2018-05-21T15:37:55.491Z,10.56
2018-05-21T15:43:50.405Z,10.34
2018-05-21T15:49:45.402Z,10.65
2018-05-21T15:55:40.461Z,9.97
2018-05-21T16:01:35.455Z,9.97
2018-05-21T16:16:21.712Z,9.27
2018-05-21T16:22:16.649Z,9.31
2018-05-21T16:28:11.679Z,8.88
2018-05-21T16:34:06.713Z,8.43
2018-05-21T16:40:01.743Z,8.83
2018-05-21T16:45:56.696Z,12.37
2018-05-21T16:51:51.661Z,12.37
2018-05-21T16:57:46.697Z,12.4
2018-05-21T17:03:41.749Z,11.98
2018-05-21T17:09:36.737Z,12.05
2018-05-21T17:15:31.712Z,10.29
2018-05-21T17:21:26.738Z,10.37
2018-05-21T17:27:21.729Z,10.95
2018-05-21T17:33:16.756Z,11.52
2018-05-21T17:39:11.728Z,11.04
2018-05-21T17:45:06.716Z,11.04
2018-05-21T17:51:01.732Z,10.55
2018-05-21T17:56:56.729Z,10.88
2018-05-21T18:02:51.744Z,9.98
2018-05-21T18:08:46.767Z,10.77
2018-05-21T18:14:41.832Z,10.6
2018-05-21T18:20:36.801Z,11.26
2018-05-21T18:26:31.741Z,10.75
2018-05-21T18:32:26.787Z,10.79
2018-05-21T18:38:21.762Z,11.2
2018-05-21T18:44:16.744Z,11.2
2018-05-21T18:50:11.765Z,11.87
2018-05-21T18:56:06.803Z,10.51
2018-05-21T19:02:01.749Z,11.16
2018-05-21T19:07:56.744Z,11.28
2018-05-21T19:13:51.792Z,11.5
2018-05-21T19:19:46.826Z,11.94
2018-05-21T19:25:41.807Z,12.59
2018-05-21T19:31:36.810Z,12.24
2018-05-21T19:37:31.775Z,11.9
2018-05-21T19:43:26.799Z,12.52
2018-05-21T19:49:21.794Z,11.31
2018-05-21T19:55:16.811Z,10.79
2018-05-21T20:01:11.790Z,11.6
2018-05-21T20:07:06.848Z,11.28
2018-05-21T20:13:01.841Z,10.35
2018-05-21T20:18:56.798Z,10.64
2018-05-21T20:24:51.831Z,11.72
2018-05-21T20:30:46.818Z,11.94
2018-05-21T20:36:41.863Z,12
2018-05-21T20:42:36.884Z,15.57
2018-05-21T20:48:31.812Z,14.25
2018-05-21T20:54:26.822Z,13.04
2018-05-21T21:00:21.830Z,15.21
2018-05-21T21:06:16.826Z,14.53
2018-05-21T21:12:11.872Z,14.36
2018-05-21T21:18:06.864Z,13.63
2018-05-21T21:24:01.868Z,13.23
2018-05-21T21:29:56.840Z,13.16
2018-05-21T21:35:51.866Z,13.59
2018-05-21T21:41:46.906Z,13.74
2018-05-21T21:47:41.852Z,13.69
2018-05-21T21:53:36.871Z,13.2
2018-05-21T21:59:31.881Z,13.31
2018-05-21T22:05:26.872Z,14.07
2018-05-21T22:11:21.862Z,15.76
2018-05-21T22:17:16.937Z,16.32
2018-05-21T22:23:11.899Z,16.85
2018-05-21T22:29:06.902Z,15.24
2018-05-21T22:35:01.960Z,15.91
2018-05-21T22:40:56.911Z,18.37
2018-05-21T22:46:51.945Z,18.49
2018-05-21T22:52:46.896Z,18
2018-05-21T22:58:41.920Z,16.66
2018-05-21T23:04:36.920Z,16.05
2018-05-21T23:10:31.921Z,16.2
2018-05-21T23:16:26.917Z,14.22
2018-05-21T23:22:21.944Z,16.35
2018-05-21T23:28:16.953Z,15.82
2018-05-21T23:34:11.927Z,15.24
2018-05-21T23:40:07.016Z,15.68
2018-05-21T23:46:01.932Z,17.69
2018-05-21T23:51:56.992Z,15.83
2018-05-21T23:57:51.941Z,13.56
